首页
METAR-TAF:

METAR-TAF

机场 :

汉诺威-朗根哈根机场

汉诺威, 德国

纬度: 52-28N, 经度: 009-41E, 海拔: 56米

当前天气观测

该预报发布于40分钟前的01:50 UTC
风速5节,风向
温度 3°C
湿度 87%
气压 1013 hPa
能见度10公里或以上
1500米以下无云,无积雨云

METAR: EDDV 170150Z 17005KT CAVOK 03/01 Q1013

时间: 03:30 (02:30 UTC)

预报

该预报发布于3小时和30分钟前的23:00 UTC
预报有效从17日的 00点(UTC)到 17日的 24点(UTC)
风速5节,风向南转南东
能见度10公里或以上
1500米以下无云,无积雨云
成为
从 17日的 00点(UTC)到 17日的 02点(UTC)
能見度: 2500
碎片雾
短暂存在
从 17日的 02点(UTC)到 17日的 08点(UTC)
能見度: 1200
多云层高于700英尺
成为
从 17日的 03点(UTC)到 17日的 06点(UTC)
风速4节,风向
几率 40% :
短暂存在
从 17日的 03点(UTC)到 17日的 08点(UTC)
能見度: 0500
多云层高于100英尺
成为
从 17日的 08点(UTC)到 17日的 11点(UTC)
风速9节,风向东北
能見度: 8000
成为
从 17日的 15点(UTC)到 17日的 18点(UTC)
能見度: 3500
多云层高于700英尺
阴天层高于1200英尺
小雨, 毛毛雨
短暂存在
从 17日的 16点(UTC)到 17日的 24点(UTC)
能見度: 2500
多云层高于400英尺
小毛毛雨, 轻雾

TAF: EDDV 162300Z 1700/1724 16005KT CAVOK BECMG 1700/1702 2500 BCFG TEMPO 1702/1708 1200 BKN007 BECMG 1703/1706 10004KT PROB40 TEMPO 1703/1708 0500 FG BKN001 BECMG 1708/1711 04009KT 8000 BECMG 1715/1718 3500 -RADZ BKN007 OVC012 TEMPO 1716/1724 2500 -DZ BR BKN004

超过4000个机场的气象观测和天气预报(METAR&TAF报告)。

可查询的气象台以黄色和红色小点在地图上表示。

将鼠标移到小点上方,可查看气象台名称。

然后点击查看天气观测和预报。

如需切换地图:点击带黑十字的绿色按钮放大地图;点击带横线的绿色按钮缩小地图;或者点击绿色箭头查看邻近地区的地图。


METAR-TAF: